Time;durP1;ratioP1;P1;durP2;ratioP2;P2;SDS_P1;SDS_P2;PMS_P1;PMS_P2;Temp;Humidity;BMP_temperature;BMP_pressure;BME280_temperature;BME280_humidity;BME280_pressure;Samples;Min_cycle;Max_cycle;Signal;HPM_P1;HPM_P2
2021/07/09 00:01:11;;;;;;;25.58;13.13;;;;;;;22.97;76.68;101185.84;5013656;28;20130;-75
2021/07/09 00:03:37;;;;;;;12.60;11.20;;;;;;;23.02;76.98;101187.53;5025187;28;20031;-76
2021/07/09 00:06:04;;;;;;;16.35;12.82;;;;;;;22.87;77.20;101181.78;5008469;28;20040;-75
2021/07/09 00:08:30;;;;;;;14.27;12.07;;;;;;;22.93;76.77;101180.69;4994397;28;20029;-78
2021/07/09 00:10:55;;;;;;;17.73;12.10;;;;;;;22.89;77.32;101177.22;5029610;28;20021;-77
2021/07/09 00:13:21;;;;;;;15.35;12.23;;;;;;;22.98;76.80;101176.00;5024902;28;20053;-77
2021/07/09 00:15:47;;;;;;;19.35;13.30;;;;;;;22.92;76.95;101178.91;4993466;28;20466;-74
2021/07/09 00:18:13;;;;;;;15.50;13.88;;;;;;;22.95;77.62;101168.13;5025413;28;20021;-78
2021/07/09 00:20:39;;;;;;;14.40;12.88;;;;;;;22.87;77.44;101168.38;5027963;28;20104;-77
2021/07/09 00:23:04;;;;;;;16.02;13.18;;;;;;;22.81;78.10;101170.47;5005840;28;20029;-76
2021/07/09 00:25:30;;;;;;;17.45;10.88;;;;;;;22.78;78.88;101166.09;5022406;28;20491;-76
2021/07/09 00:27:56;;;;;;;21.98;12.77;;;;;;;22.81;78.15;101173.13;5006684;28;20033;-75
2021/07/09 00:30:21;;;;;;;14.32;12.50;;;;;;;22.72;78.77;101158.31;5028673;28;20025;-78
2021/07/09 00:32:47;;;;;;;14.75;13.15;;;;;;;22.69;78.44;101163.78;4984706;28;20453;-75
2021/07/09 00:35:12;;;;;;;16.30;12.55;;;;;;;22.77;78.85;101159.84;5030750;28;20109;-75
2021/07/09 00:37:38;;;;;;;15.13;11.45;;;;;;;22.82;78.64;101165.03;4987150;28;20499;-75
2021/07/09 00:40:08;;;;;;;15.55;12.93;;;;;;;22.82;78.89;101164.16;5021822;28;20097;-75
2021/07/09 00:42:34;;;;;;;15.23;13.70;;;;;;;22.72;79.62;101155.63;5005372;28;20034;-76
2021/07/09 00:45:00;;;;;;;15.73;13.25;;;;;;;22.69;79.68;101155.75;4991327;28;20037;-77
2021/07/09 00:47:26;;;;;;;19.23;13.55;;;;;;;22.70;79.01;101154.81;5029394;28;20088;-77
2021/07/09 00:49:51;;;;;;;17.65;14.00;;;;;;;22.72;78.44;101152.94;5027007;28;20017;-76
2021/07/09 00:52:19;;;;;;;13.35;11.95;;;;;;;22.56;78.49;101158.00;5027593;28;20530;-77
2021/07/09 00:54:45;;;;;;;15.43;12.95;;;;;;;22.47;78.97;101153.00;5029526;28;20368;-76
2021/07/09 00:57:11;;;;;;;18.77;13.23;;;;;;;22.42;79.30;101153.19;5026808;28;20022;-76
2021/07/09 00:59:37;;;;;;;16.63;13.13;;;;;;;22.41;79.21;101143.41;5007075;28;20097;-75
2021/07/09 01:02:02;;;;;;;19.85;13.68;;;;;;;22.34;78.65;101145.44;5025844;28;20029;-73
2021/07/09 01:04:28;;;;;;;19.10;12.40;;;;;;;22.39;78.66;101142.59;5024388;28;20026;-75
2021/07/09 01:06:54;;;;;;;15.98;12.63;;;;;;;22.35;78.95;101143.63;4994100;28;20017;-76
2021/07/09 01:09:20;;;;;;;19.60;13.05;;;;;;;22.44;78.35;101142.44;5011462;28;20125;-74
2021/07/09 01:11:48;;;;;;;18.17;13.27;;;;;;;22.38;78.86;101139.97;5026746;28;20112;-76
2021/07/09 01:14:14;;;;;;;14.15;11.93;;;;;;;22.39;79.21;101139.94;5010449;28;20258;-74
2021/07/09 01:16:40;;;;;;;21.92;13.93;;;;;;;22.47;78.95;101151.19;5016474;28;20022;-75
2021/07/09 01:19:08;;;;;;;16.58;14.38;;;;;;;22.31;79.31;101145.56;4998627;28;20112;-74
2021/07/09 01:21:33;;;;;;;15.07;13.23;;;;;;;22.27;79.44;101135.91;5009291;28;20729;-75
2021/07/09 01:24:04;;;;;;;21.40;13.57;;;;;;;22.44;79.18;101139.75;5025054;28;20040;-75
2021/07/09 01:26:33;;;;;;;17.05;13.40;;;;;;;22.35;79.23;101140.97;5027857;28;20024;-74
2021/07/09 01:29:03;;;;;;;17.02;15.18;;;;;;;22.54;78.78;101150.03;5025412;28;20061;-75
2021/07/09 01:31:28;;;;;;;18.63;13.77;;;;;;;22.44;79.10;101135.28;5006717;28;20030;-75
2021/07/09 01:33:54;;;;;;;16.40;14.15;;;;;;;22.44;78.95;101143.28;5003538;28;20017;-74
2021/07/09 01:36:21;;;;;;;42.72;12.75;;;;;;;22.49;79.08;101141.31;5024955;28;20120;-76
2021/07/09 01:38:47;;;;;;;22.38;12.93;;;;;;;22.41;79.91;101138.06;4971189;28;20122;-75
2021/07/09 01:41:12;;;;;;;16.48;13.38;;;;;;;22.45;80.03;101149.50;5007609;28;20480;-74
2021/07/09 01:43:38;;;;;;;21.17;12.95;;;;;;;22.40;79.36;101141.66;4992581;28;20397;-74
2021/07/09 01:46:03;;;;;;;19.70;15.63;;;;;;;22.29;79.15;101147.44;5019443;28;20079;-74
2021/07/09 01:48:29;;;;;;;24.25;15.60;;;;;;;22.25;79.54;101140.44;5009579;28;20504;-75
2021/07/09 01:50:55;;;;;;;15.20;13.63;;;;;;;22.25;79.84;101139.56;5020797;28;20070;-75
2021/07/09 01:53:20;;;;;;;18.45;14.70;;;;;;;22.23;80.37;101136.09;5012604;28;20026;-75
2021/07/09 01:55:46;;;;;;;16.80;13.68;;;;;;;22.12;79.91;101139.09;5012085;28;20037;-75
2021/07/09 01:58:11;;;;;;;16.33;14.73;;;;;;;22.12;80.35;101142.66;5006716;28;20026;-75
2021/07/09 02:00:37;;;;;;;18.27;15.90;;;;;;;22.05;79.87;101143.78;4997790;28;20100;-76
2021/07/09 02:03:03;;;;;;;18.92;14.70;;;;;;;21.95;80.75;101141.53;4986940;28;20034;-76
2021/07/09 02:05:29;;;;;;;16.85;14.00;;;;;;;22.01;80.24;101141.28;4976670;28;20077;-76
2021/07/09 02:07:55;;;;;;;20.92;13.75;;;;;;;21.88;80.79;101146.22;5007966;28;20025;-75
2021/07/09 02:10:24;;;;;;;21.08;16.98;;;;;;;21.75;81.16;101135.09;4980257;28;20018;-75
2021/07/09 02:12:54;;;;;;;16.85;14.10;;;;;;;21.84;80.53;101131.19;5005257;28;20132;-75
2021/07/09 02:15:23;;;;;;;23.02;16.98;;;;;;;21.91;79.99;101133.63;4991493;28;20088;-75
2021/07/09 02:17:48;;;;;;;22.05;15.30;;;;;;;22.06;79.63;101131.31;5004542;28;20442;-74
2021/07/09 02:20:17;;;;;;;18.70;14.60;;;;;;;22.07;81.28;101128.56;4988035;28;20116;-77
2021/07/09 02:22:43;;;;;;;19.77;13.80;;;;;;;22.00;81.71;101132.41;4989592;28;20022;-77
2021/07/09 02:25:09;;;;;;;19.65;14.13;;;;;;;21.90;82.13;101141.69;4959048;28;20437;-76
2021/07/09 02:27:36;;;;;;;16.45;13.82;;;;;;;21.85;82.28;101130.28;4976956;28;20018;-76
2021/07/09 02:30:06;;;;;;;18.20;14.38;;;;;;;21.80;82.67;101140.28;4991602;28;20112;-77
2021/07/09 02:32:32;;;;;;;18.35;13.80;;;;;;;21.79;82.18;101134.03;4983786;28;20120;-77
2021/07/09 02:34:58;;;;;;;24.30;13.68;;;;;;;21.75;82.83;101128.84;4998321;28;20109;-77
2021/07/09 02:37:23;;;;;;;17.98;14.75;;;;;;;21.80;82.66;101135.81;5000189;28;20036;-76
2021/07/09 02:39:49;;;;;;;18.58;14.02;;;;;;;21.83;82.40;101138.34;4967273;28;20033;-76
2021/07/09 02:42:14;;;;;;;21.95;15.55;;;;;;;21.87;81.93;101134.66;5003662;28;20050;-77
2021/07/09 02:44:40;;;;;;;20.58;16.05;;;;;;;21.86;81.86;101143.56;5005696;28;22018;-76
2021/07/09 02:47:05;;;;;;;20.65;15.82;;;;;;;21.83;82.42;101146.38;4984832;28;20026;-77
2021/07/09 02:49:31;;;;;;;16.25;14.55;;;;;;;21.84;82.37;101141.88;4991572;28;20021;-77
2021/07/09 02:51:57;;;;;;;18.10;16.00;;;;;;;21.87;81.51;101149.81;5004080;28;20033;-77
2021/07/09 02:54:22;;;;;;;16.85;14.88;;;;;;;21.88;80.02;101152.41;4989304;28;20063;-77
2021/07/09 02:56:48;;;;;;;17.67;15.68;;;;;;;21.88;80.48;101144.41;4986651;28;20029;-77
2021/07/09 02:59:14;;;;;;;20.02;15.38;;;;;;;21.88;81.10;101151.56;5006845;28;20057;-77
2021/07/09 03:01:42;;;;;;;18.17;16.38;;;;;;;21.81;81.89;101150.03;4999616;28;20524;-76
2021/07/09 03:04:12;;;;;;;23.88;14.60;;;;;;;21.81;81.89;101153.56;5024664;28;20453;-77
2021/07/09 03:06:37;;;;;;;26.48;15.35;;;;;;;21.84;81.88;101148.09;4994408;28;20076;-76
2021/07/09 03:09:04;;;;;;;19.40;14.23;;;;;;;21.82;80.63;101149.09;5025042;28;20042;-76
2021/07/09 03:11:30;;;;;;;18.27;16.20;;;;;;;21.64;80.30;101156.81;5012554;28;20021;-77
2021/07/09 03:13:55;;;;;;;18.48;15.07;;;;;;;21.61;80.14;101154.25;5023850;28;20440;-77
2021/07/09 03:16:28;;;;;;;20.20;14.60;;;;;;;21.62;80.20;101157.81;5007960;28;20124;-77
2021/07/09 03:18:54;;;;;;;16.92;15.23;;;;;;;21.57;79.63;101149.06;5004388;28;20033;-77
2021/07/09 03:21:19;;;;;;;26.23;15.57;;;;;;;21.72;78.92;101151.19;5025284;28;20033;-77
2021/07/09 03:23:45;;;;;;;17.33;15.55;;;;;;;21.83;78.77;101157.06;5027803;28;20075;-77
2021/07/09 03:26:11;;;;;;;20.58;15.48;;;;;;;21.92;78.31;101151.38;5019214;28;20028;-75
2021/07/09 03:28:36;;;;;;;19.52;17.27;;;;;;;21.94;78.47;101159.38;5006553;28;20034;-75
2021/07/09 03:31:02;;;;;;;19.80;14.35;;;;;;;21.85;78.99;101149.88;5010749;28;20090;-75
2021/07/09 03:33:28;;;;;;;23.52;15.70;;;;;;;21.90;78.54;101147.91;5020537;28;20081;-74
2021/07/09 03:35:53;;;;;;;19.05;16.83;;;;;;;21.81;78.86;101148.22;5010965;28;20107;-74
2021/07/09 03:38:22;;;;;;;17.73;15.82;;;;;;;21.81;78.83;101150.03;5014562;28;20026;-74
2021/07/09 03:40:47;;;;;;;17.90;16.08;;;;;;;21.77;79.12;101148.38;5007377;28;20527;-75
2021/07/09 03:43:13;;;;;;;18.63;14.85;;;;;;;21.72;79.98;101143.19;5032282;28;20034;-74
2021/07/09 03:45:39;;;;;;;17.85;15.00;;;;;;;21.70;79.15;101143.25;5003065;28;20048;-75
2021/07/09 03:48:05;;;;;;;15.30;13.70;;;;;;;21.73;78.80;101138.72;5010061;28;20025;-75
2021/07/09 03:50:31;;;;;;;14.27;12.75;;;;;;;21.77;78.48;101141.22;5022238;28;20030;-77
2021/07/09 03:52:56;;;;;;;19.13;14.15;;;;;;;21.86;78.60;101151.59;5021550;28;20022;-76
2021/07/09 03:55:22;;;;;;;19.70;15.43;;;;;;;21.76;78.75;101136.81;5025863;28;20431;-78
2021/07/09 03:57:47;;;;;;;15.27;13.68;;;;;;;21.81;79.02;101139.34;5026184;28;20653;-77
2021/07/09 04:00:14;;;;;;;14.77;12.95;;;;;;;21.66;79.54;101138.09;5007008;28;20053;-79
2021/07/09 04:02:40;;;;;;;16.85;14.20;;;;;;;21.59;78.85;101132.06;4989908;28;20489;-77
2021/07/09 04:05:06;;;;;;;31.50;14.23;;;;;;;21.65;78.61;101139.84;5024876;28;20032;-76
2021/07/09 04:07:31;;;;;;;20.08;14.32;;;;;;;21.64;79.19;101130.09;5024864;28;20134;-74
2021/07/09 04:09:56;;;;;;;17.15;14.63;;;;;;;21.67;79.15;101143.34;4991364;28;20052;-76
2021/07/09 04:12:22;;;;;;;16.10;14.07;;;;;;;21.75;78.88;101144.88;5006887;28;20489;-76
2021/07/09 04:14:47;;;;;;;20.20;14.30;;;;;;;21.71;79.50;101146.81;5029506;28;20029;-75
2021/07/09 04:17:13;;;;;;;21.25;14.98;;;;;;;21.67;79.28;101143.34;5024280;28;20071;-76
2021/07/09 04:19:39;;;;;;;21.95;15.68;;;;;;;21.65;79.36;101136.31;5009628;28;20030;-76
2021/07/09 04:22:04;;;;;;;17.95;15.98;;;;;;;21.66;79.32;101133.59;5012277;28;20036;-76
2021/07/09 04:24:30;;;;;;;17.88;15.32;;;;;;;21.77;79.37;101137.69;5029765;28;20025;-76
2021/07/09 04:26:55;;;;;;;20.25;16.35;;;;;;;21.85;79.37;101124.94;5027066;28;20021;-76
2021/07/09 04:29:21;;;;;;;26.02;20.17;;;;;;;21.89;79.04;101130.13;5010313;28;21485;-74
2021/07/09 04:31:47;;;;;;;19.42;17.42;;;;;;;21.99;79.23;101132.47;4999250;28;20033;-75
2021/07/09 04:34:12;;;;;;;17.10;15.30;;;;;;;22.12;78.46;101126.63;5003631;28;20388;-75
2021/07/09 04:36:38;;;;;;;18.88;16.50;;;;;;;22.27;78.63;101130.56;5011966;28;20083;-75
2021/07/09 04:39:03;;;;;;;16.85;15.10;;;;;;;22.38;77.67;101137.31;5017179;28;20113;-74
2021/07/09 04:41:29;;;;;;;16.52;14.32;;;;;;;22.50;77.59;101123.47;5016467;28;20026;-73
2021/07/09 04:43:54;;;;;;;28.88;16.75;;;;;;;22.57;77.20;101135.69;5015128;28;20026;-73
2021/07/09 04:46:20;;;;;;;18.00;14.95;;;;;;;22.68;77.01;101133.44;5026856;28;20029;-74
2021/07/09 04:48:46;;;;;;;16.23;14.00;;;;;;;22.77;76.26;101142.94;5019534;28;20044;-74
2021/07/09 04:51:14;;;;;;;24.52;15.25;;;;;;;22.92;75.73;101144.13;4996041;28;20040;-74
2021/07/09 04:53:40;;;;;;;17.65;12.85;;;;;;;23.07;74.83;101142.69;5023562;28;21449;-77
2021/07/09 04:56:05;;;;;;;18.02;15.55;;;;;;;23.13;74.19;101140.63;5024582;28;20235;-77
2021/07/09 04:58:31;;;;;;;19.88;13.30;;;;;;;23.27;74.21;101137.41;5029764;28;20124;-75
2021/07/09 05:00:59;;;;;;;16.48;14.55;;;;;;;23.38;74.03;101136.94;5024747;28;20037;-78
2021/07/09 05:03:24;;;;;;;18.98;14.25;;;;;;;23.48;73.50;101132.94;5028269;28;20074;-77
2021/07/09 05:05:50;;;;;;;15.40;12.55;;;;;;;23.57;72.42;101126.31;5016526;28;20558;-76
2021/07/09 05:08:15;;;;;;;21.08;12.82;;;;;;;23.63;73.27;101133.22;4995734;28;20394;-78
2021/07/09 05:10:41;;;;;;;28.05;14.10;;;;;;;23.82;73.02;101131.53;5026934;28;20028;-83
2021/07/09 05:13:07;;;;;;;14.90;12.45;;;;;;;23.97;72.21;101129.97;5008556;28;20384;-80
2021/07/09 05:15:33;;;;;;;17.52;13.35;;;;;;;24.09;71.66;101128.53;5013175;28;20065;-77
2021/07/09 05:17:59;;;;;;;15.77;11.65;;;;;;;24.23;70.70;101127.00;5011697;28;20504;-77
2021/07/09 05:20:25;;;;;;;13.32;11.90;;;;;;;24.46;69.71;101119.69;5006367;28;20037;-77
2021/07/09 05:22:50;;;;;;;18.83;11.50;;;;;;;24.64;70.06;101126.91;4995453;28;20029;-77
2021/07/09 05:25:16;;;;;;;13.45;12.15;;;;;;;24.70;69.16;101123.09;5010048;28;20025;-78
2021/07/09 05:27:41;;;;;;;29.48;12.98;;;;;;;24.88;68.62;101126.69;5024015;28;20029;-77
2021/07/09 05:30:08;;;;;;;17.95;11.10;;;;;;;24.97;67.65;101125.38;5027338;28;20496;-78
2021/07/09 05:32:34;;;;;;;12.70;10.90;;;;;;;25.31;66.99;101116.56;5022008;28;20191;-77
2021/07/09 05:34:59;;;;;;;14.25;10.70;;;;;;;25.23;65.94;101119.59;5009957;28;20026;-78
2021/07/09 05:37:26;;;;;;;13.63;10.13;;;;;;;25.39;66.34;101125.09;5008311;28;20461;-77
2021/07/09 05:39:52;;;;;;;17.65;11.98;;;;;;;25.65;67.21;101112.13;5027416;28;20401;-77
2021/07/09 05:42:17;;;;;;;14.75;11.32;;;;;;;25.76;66.30;101125.88;4977943;28;20029;-77
2021/07/09 05:44:43;;;;;;;11.98;10.60;;;;;;;25.91;65.71;101118.88;5029853;28;20032;-77
2021/07/09 05:47:12;;;;;;;15.30;10.98;;;;;;;25.90;65.77;101111.75;5008230;28;20385;-78
2021/07/09 05:49:38;;;;;;;13.18;10.60;;;;;;;25.99;65.71;101118.44;4990998;28;20140;-77
2021/07/09 05:52:04;;;;;;;14.00;11.52;;;;;;;26.15;65.19;101122.06;5008970;28;20117;-77
2021/07/09 05:54:30;;;;;;;26.52;12.50;;;;;;;26.25;65.19;101130.53;5029431;28;20059;-77
2021/07/09 05:56:55;;;;;;;11.70;10.07;;;;;;;26.26;64.21;101124.19;5011737;28;20026;-78
2021/07/09 05:59:21;;;;;;;16.30;10.43;;;;;;;26.35;64.79;101120.13;5031312;28;20141;-78
2021/07/09 06:01:46;;;;;;;14.23;11.23;;;;;;;26.40;63.79;101118.91;5027733;28;20037;-78
2021/07/09 06:04:13;;;;;;;18.90;9.55;;;;;;;26.41;63.49;101119.75;5026406;28;20029;-78
2021/07/09 06:06:39;;;;;;;21.33;11.55;;;;;;;26.43;64.36;101125.94;5011907;28;20386;-77
2021/07/09 06:09:05;;;;;;;18.75;11.18;;;;;;;26.50;64.35;101113.88;5020636;28;20029;-77
2021/07/09 06:11:31;;;;;;;17.80;10.95;;;;;;;26.62;64.33;101117.75;5006465;28;20056;-80
2021/07/09 06:13:56;;;;;;;15.93;10.27;;;;;;;26.41;63.13;101133.22;5002641;28;20488;-78
2021/07/09 06:16:22;;;;;;;13.10;10.23;;;;;;;26.00;63.53;101121.06;4995185;28;20125;-78
2021/07/09 06:18:51;;;;;;;13.35;10.45;;;;;;;26.22;65.07;101115.41;5000551;28;20036;-78
2021/07/09 06:21:17;;;;;;;13.55;10.65;;;;;;;26.30;65.06;101121.25;5016546;28;20121;-79
2021/07/09 06:23:46;;;;;;;17.77;12.05;;;;;;;26.48;64.16;101113.09;5012314;28;20072;-78
2021/07/09 06:26:13;;;;;;;14.30;10.95;;;;;;;26.48;62.76;101110.41;5023562;28;20029;-79
2021/07/09 06:28:39;;;;;;;16.77;9.93;;;;;;;26.52;61.36;101117.34;5023998;28;20083;-79
2021/07/09 06:31:06;;;;;;;12.90;9.65;;;;;;;26.71;62.19;101117.22;5034607;28;20018;-79
2021/07/09 06:33:31;;;;;;;10.15;8.25;;;;;;;26.72;60.44;101118.97;5004502;28;20033;-81
2021/07/09 06:35:56;;;;;;;12.25;9.52;;;;;;;26.67;60.76;101119.25;5034858;28;20029;-83
2021/07/09 06:38:22;;;;;;;18.00;9.02;;;;;;;26.71;60.22;101117.22;5028939;28;20059;-83
2021/07/09 06:40:48;;;;;;;9.68;8.68;;;;;;;26.91;61.53;101122.34;4995376;28;20476;-82
2021/07/09 06:43:13;;;;;;;13.00;9.80;;;;;;;27.06;60.81;101119.75;5002678;28;20032;-84
2021/07/09 06:45:40;;;;;;;9.27;7.63;;;;;;;26.76;59.94;101115.13;4997793;28;20465;-84
2021/07/09 06:48:06;;;;;;;10.10;8.05;;;;;;;26.90;60.90;101117.94;4993899;28;20091;-83
2021/07/09 06:50:34;;;;;;;14.65;9.27;;;;;;;26.52;61.08;101111.97;5028852;28;20020;-83
2021/07/09 06:53:04;;;;;;;13.93;9.65;;;;;;;26.52;61.97;101109.28;5018206;28;20660;-83
2021/07/09 06:55:30;;;;;;;20.65;8.23;;;;;;;26.64;60.45;101113.16;5028602;28;20032;-81
2021/07/09 06:57:55;;;;;;;12.65;8.45;;;;;;;26.91;60.22;101113.41;5007652;28;20060;-83
2021/07/09 07:00:21;;;;;;;14.02;8.23;;;;;;;26.86;60.07;101113.69;5013715;28;20469;-84
2021/07/09 07:02:47;;;;;;;11.60;8.50;;;;;;;26.99;59.85;101113.84;5016618;28;20067;-84
2021/07/09 07:05:16;;;;;;;11.80;7.50;;;;;;;26.95;58.98;101112.28;5013290;28;20024;-83
2021/07/09 07:07:42;;;;;;;10.40;9.27;;;;;;;26.94;58.00;101115.94;5016793;28;20033;-83
2021/07/09 07:10:10;;;;;;;10.90;8.07;;;;;;;26.71;59.02;101107.34;5005381;28;20065;-82
2021/07/09 07:12:36;;;;;;;14.20;7.95;;;;;;;26.95;56.61;101113.16;5002636;28;20125;-83
2021/07/09 07:15:04;;;;;;;13.85;6.65;;;;;;;26.99;56.60;101116.53;5008972;28;20094;-83
2021/07/09 07:17:30;;;;;;;11.45;7.28;;;;;;;26.94;57.93;101110.53;4992368;28;20482;-82
2021/07/09 07:19:56;;;;;;;16.00;7.68;;;;;;;27.10;58.25;101107.84;4975085;28;20041;-83
2021/07/09 07:22:21;;;;;;;10.30;6.60;;;;;;;27.21;57.18;101107.25;5005010;28;21825;-82
2021/07/09 07:24:49;;;;;;;14.63;7.60;;;;;;;27.47;56.86;101109.25;5017374;28;20040;-81
2021/07/09 07:27:16;;;;;;;10.43;7.88;;;;;;;27.62;56.84;101112.84;5018073;28;20022;-81
2021/07/09 07:29:41;;;;;;;12.82;8.32;;;;;;;27.71;54.44;101124.94;5012547;28;20036;-82
2021/07/09 07:32:07;;;;;;;13.40;6.97;;;;;;;27.70;56.18;101107.88;4995362;28;20025;-83
2021/07/09 07:34:32;;;;;;;13.23;6.88;;;;;;;27.79;54.77;101112.72;4989092;28;20539;-83
2021/07/09 07:36:58;;;;;;;11.05;6.65;;;;;;;27.88;54.35;101108.59;5008634;28;20033;-83
2021/07/09 07:39:23;;;;;;;12.55;7.38;;;;;;;28.10;54.48;101110.00;5017824;28;20029;-82
2021/07/09 07:41:49;;;;;;;11.88;7.75;;;;;;;27.76;55.94;101112.03;5002596;28;20022;-82
2021/07/09 07:44:14;;;;;;;11.05;6.97;;;;;;;27.76;54.41;101109.31;5008305;28;20108;-83
2021/07/09 07:46:40;;;;;;;8.95;7.88;;;;;;;28.02;54.41;101099.66;4989892;28;20034;-83
2021/07/09 07:49:05;;;;;;;9.00;6.63;;;;;;;28.14;55.31;101100.72;5005437;28;20122;-83
2021/07/09 07:51:31;;;;;;;12.85;7.50;;;;;;;28.29;54.26;101102.47;5004655;28;20034;-82
2021/07/09 07:53:56;;;;;;;16.95;8.02;;;;;;;28.35;54.91;101099.38;5012822;28;20022;-85
2021/07/09 07:56:22;;;;;;;8.77;6.75;;;;;;;28.48;56.01;101101.31;5007024;28;20023;-85
2021/07/09 07:58:51;;;;;;;10.68;8.45;;;;;;;28.55;54.48;101094.56;5022446;28;20081;-85
2021/07/09 08:01:17;;;;;;;8.85;6.82;;;;;;;28.32;53.17;101098.69;4998117;28;20042;-86
2021/07/09 08:03:43;;;;;;;10.52;7.10;;;;;;;28.28;54.78;101094.44;5017536;28;20048;-88
2021/07/09 08:06:08;;;;;;;17.35;7.40;;;;;;;28.28;53.53;101089.06;5026720;28;20486;-85
2021/07/09 08:08:34;;;;;;;13.70;7.22;;;;;;;28.47;51.92;101088.78;5030112;28;20093;-87
2021/07/09 08:11:03;;;;;;;14.63;7.80;;;;;;;28.26;53.48;101088.28;5017295;28;20476;-86
2021/07/09 08:13:28;;;;;;;9.15;6.50;;;;;;;28.43;52.84;101088.09;5002853;28;20069;-85
2021/07/09 08:15:54;;;;;;;9.63;6.90;;;;;;;28.74;52.91;101081.59;5011176;28;20053;-89
2021/07/09 08:18:19;;;;;;;8.35;6.25;;;;;;;28.44;50.99;101089.81;5021008;28;20056;-84
2021/07/09 08:20:45;;;;;;;7.80;6.00;;;;;;;28.99;50.98;101088.09;5022851;28;20021;-86
2021/07/09 08:23:10;;;;;;;11.27;5.88;;;;;;;29.29;50.09;101085.19;5026525;28;20041;-84
2021/07/09 08:25:36;;;;;;;10.90;6.07;;;;;;;29.53;48.84;101081.78;5027720;28;20033;-84
2021/07/09 08:28:02;;;;;;;6.65;5.95;;;;;;;29.72;51.45;101082.25;5027319;28;20029;-84
2021/07/09 08:30:28;;;;;;;11.85;8.15;;;;;;;29.96;50.15;101084.19;5017636;28;20071;-85
2021/07/09 08:32:53;;;;;;;12.43;6.57;;;;;;;30.16;51.29;101074.69;5012101;28;20033;-85
2021/07/09 08:35:20;;;;;;;10.75;6.53;;;;;;;30.25;51.00;101076.69;5015359;28;20034;-74
2021/07/09 08:37:45;;;;;;;7.43;6.63;;;;;;;30.23;46.88;101086.78;5033033;28;20029;-75
2021/07/09 08:40:11;;;;;;;8.95;6.22;;;;;;;30.17;46.53;101081.81;5024959;28;20028;-74
2021/07/09 08:42:40;;;;;;;8.82;6.95;;;;;;;30.40;49.03;101075.63;5010816;28;20026;-74
2021/07/09 08:45:06;;;;;;;12.55;7.20;;;;;;;30.32;50.49;101071.72;5028398;28;20037;-77
2021/07/09 08:47:33;;;;;;;9.38;6.40;;;;;;;30.42;48.65;101070.09;5008566;28;20020;-77
2021/07/09 08:50:01;;;;;;;10.55;5.72;;;;;;;30.95;49.81;101069.81;4998007;28;20034;-79
2021/07/09 08:52:27;;;;;;;7.45;6.40;;;;;;;31.03;49.21;101065.56;5004605;28;20480;-77
2021/07/09 08:54:52;;;;;;;17.02;7.97;;;;;;;31.11;45.76;101073.97;5007927;28;20037;-77
2021/07/09 08:57:17;;;;;;;9.02;6.38;;;;;;;30.85;46.60;101069.66;5025635;28;20053;-77
2021/07/09 08:59:43;;;;;;;8.98;5.22;;;;;;;30.82;46.96;101065.31;5017955;28;20076;-76
2021/07/09 09:02:09;;;;;;;10.82;5.88;;;;;;;30.93;46.96;101069.97;5031772;28;20021;-75
2021/07/09 09:04:36;;;;;;;11.15;6.35;;;;;;;30.89;44.75;101063.03;5023459;28;20031;-76
2021/07/09 09:07:11;;;;;;;14.05;6.78;;;;;;;31.59;46.89;101061.34;5029720;28;20022;-75
2021/07/09 09:09:38;;;;;;;9.40;6.68;;;;;;;31.71;45.40;101057.66;5026632;28;20084;-75
2021/07/09 09:12:10;;;;;;;19.05;7.47;;;;;;;31.20;45.58;101058.84;5011406;28;20056;-74
2021/07/09 09:14:49;;;;;;;15.02;6.03;;;;;;;31.48;46.13;101054.91;5028991;28;20083;-76
2021/07/09 09:17:31;;;;;;;8.35;6.38;;;;;;;32.20;45.82;101042.91;5005755;28;20026;-76
2021/07/09 09:20:32;;;;;;;9.10;6.43;;;;;;;31.89;40.39;101052.59;5031035;28;20022;-76
2021/07/09 09:22:59;;;;;;;5.32;4.20;;;;;;;31.04;41.55;101056.44;5007238;28;20467;-76
2021/07/09 09:25:27;;;;;;;11.32;5.75;;;;;;;31.74;43.77;101043.84;5014654;28;20053;-76
2021/07/09 09:27:56;;;;;;;10.40;6.43;;;;;;;32.04;42.62;101046.00;5028860;28;20021;-76
2021/07/09 09:30:21;;;;;;;10.40;5.82;;;;;;;32.54;41.80;101040.16;5025091;28;20029;-77
2021/07/09 09:32:48;;;;;;;6.13;4.15;;;;;;;31.78;38.25;101031.75;5009604;28;20064;-77
2021/07/09 09:35:27;;;;;;;20.55;4.75;;;;;;;32.66;39.97;101032.84;5023051;28;20026;-75
2021/07/09 09:37:56;;;;;;;8.82;5.45;;;;;;;32.42;40.59;101041.16;5007853;28;20400;-75
2021/07/09 09:40:25;;;;;;;14.57;5.32;;;;;;;33.07;41.69;101039.41;5009692;28;20018;-75
2021/07/09 09:42:51;;;;;;;6.75;4.57;;;;;;;33.09;38.22;101034.72;5026280;28;20022;-75
2021/07/09 09:45:21;;;;;;;5.05;3.92;;;;;;;32.69;40.45;101030.75;5025978;28;20389;-75
2021/07/09 09:47:47;;;;;;;8.77;4.28;;;;;;;33.03;41.11;101027.88;5020413;28;20750;-76
2021/07/09 09:50:37;;;;;;;14.02;5.40;;;;;;;32.30;41.02;101027.56;5029115;28;20025;-78
2021/07/09 09:53:02;;;;;;;7.65;5.15;;;;;;;31.80;42.15;101027.09;5037464;28;20052;-78
2021/07/09 09:55:32;;;;;;;9.07;5.60;;;;;;;30.95;42.33;101030.03;5025752;28;20858;-77
2021/07/09 09:58:10;;;;;;;14.57;4.68;;;;;;;31.32;41.92;101030.78;5024000;28;20075;-77
2021/07/09 10:00:36;;;;;;;5.70;5.07;;;;;;;31.50;43.38;101020.38;5040959;28;20040;-83
2021/07/09 10:03:04;;;;;;;8.13;5.10;;;;;;;30.99;42.10;101033.38;4998791;28;20556;-83
2021/07/09 10:05:31;;;;;;;6.38;5.07;;;;;;;30.91;44.53;101015.84;5018101;28;20111;-82
2021/07/09 10:07:57;;;;;;;11.63;5.28;;;;;;;30.68;38.77;101019.41;5013207;28;20165;-79
2021/07/09 10:10:23;;;;;;;9.65;5.47;;;;;;;30.76;40.24;101018.81;5011168;28;20389;-78
2021/07/09 10:12:50;;;;;;;9.13;5.00;;;;;;;30.91;37.25;101018.56;5023247;28;20025;-78
2021/07/09 10:15:19;;;;;;;11.55;6.53;;;;;;;31.87;37.14;101008.47;5000909;28;20053;-79
2021/07/09 10:17:49;;;;;;;11.63;4.57;;;;;;;32.49;35.43;101010.63;5003963;28;20113;-79
2021/07/09 10:20:15;;;;;;;14.35;5.03;;;;;;;32.68;35.88;101011.84;5022411;28;20030;-79
2021/07/09 10:22:41;;;;;;;10.00;4.70;;;;;;;32.48;36.21;101008.91;5013826;28;20025;-78
2021/07/09 10:25:07;;;;;;;10.35;6.53;;;;;;;32.94;38.81;100993.31;5009665;28;20020;-85
2021/07/09 10:27:33;;;;;;;6.03;4.25;;;;;;;33.19;36.41;100998.41;5022293;28;20064;-87
2021/07/09 10:30:05;;;;;;;6.70;5.25;;;;;;;32.20;35.03;101004.03;5025934;28;20021;-86
2021/07/09 10:32:36;;;;;;;4.57;3.60;;;;;;;32.52;35.56;101001.38;5014788;28;20025;-89
2021/07/09 10:35:11;;;;;;;7.43;4.88;;;;;;;33.19;36.02;101000.28;5018190;28;20025;-88
2021/07/09 10:37:37;;;;;;;11.30;4.20;;;;;;;33.20;34.36;100997.44;5009806;28;20026;-87
2021/07/09 10:40:19;;;;;;;13.35;4.85;;;;;;;33.22;34.49;100992.72;5017072;28;20031;-87
2021/07/09 10:42:46;;;;;;;8.20;4.30;;;;;;;33.27;32.88;100988.72;5039432;28;20026;-88
2021/07/09 10:45:14;;;;;;;13.00;4.88;;;;;;;33.50;34.86;100986.72;5019383;28;20846;-89
2021/07/09 10:48:09;;;;;;;5.63;3.30;;;;;;;32.52;32.55;100980.53;5028357;28;20434;-89
2021/07/09 10:50:49;;;;;;;5.28;3.63;;;;;;;33.07;33.70;100982.28;4994514;28;20065;-88
2021/07/09 10:53:15;;;;;;;9.07;5.05;;;;;;;33.61;34.92;100973.91;5002186;28;20025;-82
2021/07/09 10:56:09;;;;;;;7.28;4.30;;;;;;;33.01;31.85;100975.47;5022734;28;20030;-80
2021/07/09 10:58:42;;;;;;;7.10;5.15;;;;;;;33.75;35.50;100967.25;5033980;28;20077;-79
2021/07/09 11:01:08;;;;;;;6.10;4.95;;;;;;;34.21;36.03;100968.59;5033079;28;20693;-79
2021/07/09 11:03:43;;;;;;;12.95;5.07;;;;;;;34.06;35.88;100956.31;5018851;28;20112;-74
2021/07/09 11:06:19;;;;;;;6.63;4.43;;;;;;;33.81;32.51;100955.81;4996660;28;20026;-74
2021/07/09 11:09:02;;;;;;;5.35;3.88;;;;;;;33.98;34.46;100953.44;5018767;28;20017;-75
2021/07/09 11:11:32;;;;;;;11.48;5.43;;;;;;;34.52;36.09;100951.28;5032655;28;20458;-74
2021/07/09 11:13:59;;;;;;;8.43;4.95;;;;;;;34.11;34.13;100945.03;4998483;28;20679;-78